Time;durP1;ratioP1;P1;durP2;ratioP2;P2;SDS_P1;SDS_P2;PMS_P1;PMS_P2;Temp;Humidity;BMP_temperature;BMP_pressure;BME280_temperature;BME280_humidity;BME280_pressure;Samples;Min_cycle;Max_cycle;Signal;HPM_P1;HPM_P2
2021/03/30 00:00:20;;;;;;;1.50;1.20;;;9.30;84.90;;;;;;4994886;28;20555;-73
2021/03/30 00:02:47;;;;;;;1.50;1.20;;;9.30;85.20;;;;;;5002354;28;20488;-73
2021/03/30 00:05:14;;;;;;;1.50;1.13;;;9.30;85.00;;;;;;4999695;28;20454;-73
2021/03/30 00:07:40;;;;;;;1.60;1.30;;;9.20;85.30;;;;;;4989852;28;20480;-73
2021/03/30 00:10:10;;;;;;;1.50;1.20;;;9.20;85.20;;;;;;4997902;28;20489;-73
2021/03/30 00:12:36;;;;;;;1.50;1.20;;;9.20;84.80;;;;;;5004265;28;20475;-72
2021/03/30 00:15:04;;;;;;;1.50;1.20;;;9.10;84.10;;;;;;5004338;28;20483;-73
2021/03/30 00:17:30;;;;;;;1.50;1.20;;;9.10;84.20;;;;;;4998207;28;20548;-73
2021/03/30 00:19:57;;;;;;;1.50;1.20;;;9.10;84.20;;;;;;4999992;28;21022;-73
2021/03/30 00:22:24;;;;;;;1.50;1.17;;;9.10;84.40;;;;;;4996614;28;20627;-72
2021/03/30 00:24:50;;;;;;;1.50;1.27;;;9.10;85.60;;;;;;4990397;28;20466;-73
2021/03/30 00:27:16;;;;;;;1.50;1.20;;;9.10;84.70;;;;;;4997199;28;20480;-72
2021/03/30 00:29:43;;;;;;;1.50;1.20;;;9.10;85.10;;;;;;4999923;28;20481;-73
2021/03/30 00:32:10;;;;;;;1.50;1.20;;;9.00;85.70;;;;;;4993316;28;20619;-73
2021/03/30 00:34:36;;;;;;;1.50;1.20;;;9.00;85.60;;;;;;4993640;28;20484;-73
2021/03/30 00:37:04;;;;;;;1.50;1.10;;;9.00;85.50;;;;;;4997949;28;20491;-72
2021/03/30 00:39:31;;;;;;;1.50;1.20;;;8.90;85.60;;;;;;4994676;28;20493;-73
2021/03/30 00:41:57;;;;;;;1.53;1.20;;;8.90;85.90;;;;;;4993518;28;20492;-73
2021/03/30 00:44:24;;;;;;;1.50;1.20;;;9.00;85.90;;;;;;5000611;28;20466;-73
2021/03/30 00:46:52;;;;;;;1.53;1.23;;;8.90;85.90;;;;;;4990615;28;20972;-73
2021/03/30 00:49:20;;;;;;;1.53;1.20;;;8.90;86.70;;;;;;4995429;28;21182;-72
2021/03/30 00:51:48;;;;;;;2.10;1.90;;;8.80;86.00;;;;;;4991095;28;20484;-73
2021/03/30 00:54:16;;;;;;;1.50;1.30;;;8.80;87.20;;;;;;5002723;28;20508;-73
2021/03/30 00:56:42;;;;;;;1.53;1.20;;;8.70;87.40;;;;;;4989906;28;20697;-73
2021/03/30 00:59:09;;;;;;;1.50;1.20;;;8.70;87.80;;;;;;5000005;28;20492;-73
2021/03/30 01:01:35;;;;;;;1.50;1.20;;;8.60;87.30;;;;;;4993660;28;20542;-73
2021/03/30 01:04:02;;;;;;;1.53;1.20;;;8.70;87.40;;;;;;5006074;28;20468;-73
2021/03/30 01:06:28;;;;;;;1.50;1.17;;;8.70;87.90;;;;;;4988756;28;20487;-72
2021/03/30 01:09:08;;;;;;;1.53;1.20;;;8.60;88.40;;;;;;5002123;28;20488;-72
2021/03/30 01:11:44;;;;;;;1.50;1.20;;;8.60;88.20;;;;;;4971995;28;20500;-71
2021/03/30 01:14:23;;;;;;;1.53;1.20;;;8.60;87.80;;;;;;5003964;28;21044;-72
2021/03/30 01:16:53;;;;;;;1.50;1.10;;;8.60;87.90;;;;;;4987274;28;20476;-72
2021/03/30 01:19:45;;;;;;;1.50;1.30;;;8.50;88.80;;;;;;5000683;28;20478;-74
2021/03/30 01:22:42;;;;;;;1.50;1.17;;;8.50;88.90;;;;;;5000530;28;20492;-73
2021/03/30 01:25:09;;;;;;;1.50;1.30;;;8.40;88.90;;;;;;4992784;28;20473;-74
2021/03/30 01:27:45;;;;;;;1.50;1.20;;;8.40;88.30;;;;;;4998141;28;20519;-73
2021/03/30 01:30:15;;;;;;;1.50;1.20;;;8.40;87.60;;;;;;4995199;28;20497;-73
2021/03/30 01:32:44;;;;;;;1.50;1.20;;;8.40;88.60;;;;;;4996125;28;20494;-72
2021/03/30 01:35:15;;;;;;;1.53;1.30;;;8.30;88.80;;;;;;5000958;28;20488;-72
2021/03/30 01:37:44;;;;;;;1.50;1.23;;;8.30;89.00;;;;;;4996206;28;20514;-72
2021/03/30 01:40:15;;;;;;;1.50;1.30;;;8.30;88.80;;;;;;4997971;28;20936;-72
2021/03/30 01:42:42;;;;;;;1.50;1.20;;;8.30;90.10;;;;;;4996450;28;20488;-72
2021/03/30 01:45:10;;;;;;;1.53;1.30;;;8.30;89.00;;;;;;4995841;28;20900;-73
2021/03/30 01:47:39;;;;;;;1.53;1.30;;;8.20;89.20;;;;;;4990267;28;20484;-72
2021/03/30 01:50:07;;;;;;;1.50;1.23;;;8.20;89.60;;;;;;5000294;28;21010;-73
2021/03/30 01:52:34;;;;;;;1.50;1.20;;;8.20;89.10;;;;;;4999766;28;20484;-73
2021/03/30 01:55:01;;;;;;;1.50;1.20;;;8.10;89.30;;;;;;4991534;28;20587;-73
2021/03/30 01:57:30;;;;;;;1.50;1.20;;;8.10;89.60;;;;;;4992574;28;20491;-73
2021/03/30 01:59:57;;;;;;;1.57;1.20;;;8.00;89.50;;;;;;4992504;28;20531;-74
2021/03/30 02:02:24;;;;;;;1.60;1.30;;;8.00;90.40;;;;;;4996544;28;20539;-73
2021/03/30 02:04:52;;;;;;;1.60;1.30;;;8.00;90.40;;;;;;4995903;28;21087;-72
2021/03/30 02:07:20;;;;;;;1.50;1.20;;;8.00;89.50;;;;;;4993122;28;20488;-73
2021/03/30 02:09:54;;;;;;;1.50;1.20;;;8.00;89.50;;;;;;5001344;28;20481;-73
2021/03/30 02:12:23;;;;;;;1.50;1.23;;;8.00;90.00;;;;;;4997246;28;21122;-73
2021/03/30 02:14:49;;;;;;;1.50;1.20;;;8.00;89.90;;;;;;4997864;28;20504;-73
2021/03/30 02:17:23;;;;;;;1.50;1.20;;;8.00;90.20;;;;;;4990021;28;20484;-73
2021/03/30 02:19:55;;;;;;;1.50;1.20;;;7.90;90.60;;;;;;4998123;28;20484;-74
2021/03/30 02:22:27;;;;;;;1.50;1.20;;;7.90;90.50;;;;;;4995541;28;20831;-74
2021/03/30 02:24:55;;;;;;;1.53;1.30;;;7.90;90.60;;;;;;4996385;28;20467;-72
2021/03/30 02:27:22;;;;;;;1.57;1.20;;;7.90;90.70;;;;;;4996230;28;20483;-73
2021/03/30 02:29:51;;;;;;;1.50;1.30;;;7.90;90.30;;;;;;4993994;28;20493;-73
2021/03/30 02:32:19;;;;;;;1.50;1.30;;;7.80;90.30;;;;;;4993586;28;20492;-72
2021/03/30 02:34:48;;;;;;;1.60;1.40;;;7.80;90.40;;;;;;4993830;28;20492;-73
2021/03/30 02:37:15;;;;;;;1.60;1.40;;;7.80;90.40;;;;;;4992576;28;20480;-74
2021/03/30 02:39:43;;;;;;;1.50;1.20;;;7.70;90.00;;;;;;4997333;28;20503;-74
2021/03/30 02:42:11;;;;;;;1.50;1.20;;;7.70;89.80;;;;;;4993467;28;20478;-74
2021/03/30 02:44:39;;;;;;;1.50;1.20;;;7.60;89.50;;;;;;5000018;28;20465;-72
2021/03/30 02:47:07;;;;;;;1.57;1.30;;;7.60;90.90;;;;;;4991496;28;21010;-72
2021/03/30 02:49:36;;;;;;;1.50;1.30;;;7.60;91.40;;;;;;4990763;28;21001;-72
2021/03/30 02:52:04;;;;;;;1.53;1.33;;;7.60;91.20;;;;;;4989559;28;20603;-72
2021/03/30 02:54:31;;;;;;;1.50;1.20;;;7.50;91.10;;;;;;4999807;28;20495;-74
2021/03/30 02:57:00;;;;;;;1.57;1.30;;;7.50;91.20;;;;;;4991062;28;20488;-74
2021/03/30 02:59:28;;;;;;;1.60;1.40;;;7.50;91.00;;;;;;4992055;28;20853;-73
2021/03/30 03:01:55;;;;;;;1.50;1.30;;;7.40;91.50;;;;;;4989577;28;20496;-74
2021/03/30 03:04:22;;;;;;;1.50;1.30;;;7.40;91.90;;;;;;4999411;28;20463;-72
2021/03/30 03:06:49;;;;;;;1.57;1.30;;;7.40;91.50;;;;;;4996788;28;20479;-72
2021/03/30 03:09:15;;;;;;;1.53;1.30;;;7.40;92.20;;;;;;4996598;28;20852;-72
2021/03/30 03:11:45;;;;;;;1.50;1.30;;;7.40;92.30;;;;;;4988358;28;21392;-73
2021/03/30 03:14:12;;;;;;;1.57;1.40;;;7.40;91.10;;;;;;4995917;28;20469;-72
2021/03/30 03:16:39;;;;;;;1.50;1.20;;;7.40;91.20;;;;;;4980134;28;20571;-73
2021/03/30 03:19:07;;;;;;;1.60;1.40;;;7.40;90.90;;;;;;4994987;28;20465;-72
2021/03/30 03:21:33;;;;;;;1.60;1.50;;;7.40;91.20;;;;;;4984276;28;20484;-73
2021/03/30 03:24:01;;;;;;;1.53;1.27;;;7.40;91.40;;;;;;5003986;28;20572;-72
2021/03/30 03:26:27;;;;;;;1.50;1.20;;;7.30;91.00;;;;;;4996538;28;20484;-73
2021/03/30 03:28:54;;;;;;;1.60;1.50;;;7.30;91.70;;;;;;4993832;28;20513;-73
2021/03/30 03:31:28;;;;;;;1.57;1.30;;;7.30;92.00;;;;;;4985018;28;20484;-73
2021/03/30 03:33:59;;;;;;;1.50;1.30;;;7.30;91.70;;;;;;4992939;28;20477;-73
2021/03/30 03:36:34;;;;;;;1.53;1.30;;;7.20;92.40;;;;;;4979494;28;20480;-75
2021/03/30 03:39:00;;;;;;;1.57;1.30;;;7.20;91.60;;;;;;5000349;28;20977;-72
2021/03/30 03:41:27;;;;;;;1.60;1.30;;;7.20;92.20;;;;;;4989208;28;20555;-72
2021/03/30 03:43:54;;;;;;;1.60;1.30;;;7.20;92.20;;;;;;5005743;28;20456;-73
2021/03/30 03:46:20;;;;;;;1.53;1.30;;;7.20;93.00;;;;;;4981776;28;20526;-74
2021/03/30 03:48:46;;;;;;;1.50;1.20;;;7.10;92.10;;;;;;5001101;28;20468;-72
2021/03/30 03:51:13;;;;;;;1.60;1.40;;;7.10;92.00;;;;;;4986908;28;20484;-73
2021/03/30 03:53:41;;;;;;;1.50;1.20;;;7.10;92.70;;;;;;5000151;28;20892;-74
2021/03/30 03:56:09;;;;;;;1.60;1.30;;;7.10;92.50;;;;;;4986791;28;20554;-74
2021/03/30 03:58:40;;;;;;;1.53;1.30;;;7.00;92.60;;;;;;5004736;28;20472;-73
2021/03/30 04:01:13;;;;;;;1.50;1.30;;;7.00;93.00;;;;;;4985782;28;20485;-72
2021/03/30 04:03:47;;;;;;;1.53;1.30;;;7.00;92.10;;;;;;4996627;28;20519;-72
2021/03/30 04:06:16;;;;;;;1.50;1.30;;;7.00;93.50;;;;;;4984724;28;20484;-73
2021/03/30 04:08:48;;;;;;;1.53;1.30;;;6.90;93.30;;;;;;5006419;28;20473;-72
2021/03/30 04:11:16;;;;;;;1.50;1.20;;;6.90;93.30;;;;;;4982586;28;20541;-72
2021/03/30 04:13:44;;;;;;;1.50;1.20;;;6.90;93.50;;;;;;4999575;28;20469;-72
2021/03/30 04:16:12;;;;;;;1.50;1.20;;;6.90;92.80;;;;;;4989801;28;20495;-73
2021/03/30 04:18:40;;;;;;;1.57;1.30;;;6.80;92.70;;;;;;5007581;28;20461;-73
2021/03/30 04:21:11;;;;;;;1.50;1.30;;;6.80;93.60;;;;;;4982247;28;20546;-73
2021/03/30 04:23:45;;;;;;;1.57;1.30;;;6.80;92.90;;;;;;5002377;28;20493;-71
2021/03/30 04:26:12;;;;;;;1.50;1.30;;;6.80;92.90;;;;;;4990466;28;20471;-71
2021/03/30 04:28:39;;;;;;;1.60;1.30;;;6.70;93.10;;;;;;5005453;28;20461;-73
2021/03/30 04:31:05;;;;;;;1.60;1.30;;;6.70;93.30;;;;;;4976319;28;20481;-74
2021/03/30 04:33:33;;;;;;;1.50;1.30;;;6.70;92.80;;;;;;5004850;28;20521;-73
2021/03/30 04:36:00;;;;;;;1.57;1.30;;;6.70;93.40;;;;;;4985114;28;20489;-73
2021/03/30 04:38:26;;;;;;;1.50;1.20;;;6.70;93.10;;;;;;5006397;28;20468;-72
2021/03/30 04:40:53;;;;;;;1.50;1.20;;;6.70;92.80;;;;;;4978154;28;20513;-73
2021/03/30 04:43:20;;;;;;;1.50;1.20;;;6.60;92.50;;;;;;5004232;28;20469;-72
2021/03/30 04:45:47;;;;;;;1.50;1.20;;;6.60;93.30;;;;;;4989640;28;20453;-73
2021/03/30 04:48:13;;;;;;;1.53;1.30;;;6.60;93.90;;;;;;5007490;28;20481;-73
2021/03/30 04:50:40;;;;;;;1.53;1.30;;;6.60;93.60;;;;;;4985423;28;20484;-72
2021/03/30 04:53:06;;;;;;;1.60;1.30;;;6.50;93.30;;;;;;4997139;28;20554;-72
2021/03/30 04:55:32;;;;;;;1.60;1.40;;;6.50;93.90;;;;;;4995692;28;20489;-74
2021/03/30 04:57:59;;;;;;;1.50;1.30;;;6.50;94.30;;;;;;4990948;28;20488;-73
2021/03/30 05:00:25;;;;;;;1.50;1.30;;;6.50;94.40;;;;;;4990966;28;20489;-72
2021/03/30 05:02:51;;;;;;;1.57;1.30;;;6.40;93.50;;;;;;4997193;28;21226;-73
2021/03/30 05:05:18;;;;;;;1.53;1.27;;;6.40;93.40;;;;;;4987898;28;20471;-73
2021/03/30 05:07:45;;;;;;;1.60;1.30;;;6.40;93.90;;;;;;4995697;28;20602;-72
2021/03/30 05:10:12;;;;;;;1.57;1.30;;;6.40;95.00;;;;;;4997077;28;20503;-72
2021/03/30 05:12:39;;;;;;;1.57;1.30;;;6.40;94.60;;;;;;5000028;28;20491;-72
2021/03/30 05:15:06;;;;;;;1.53;1.30;;;6.40;94.00;;;;;;4988573;28;20488;-71
2021/03/30 05:17:33;;;;;;;1.60;1.40;;;6.40;94.50;;;;;;4992850;28;20866;-72
2021/03/30 05:19:59;;;;;;;1.73;1.63;;;6.40;94.90;;;;;;4997051;28;20484;-73
2021/03/30 05:22:25;;;;;;;1.50;1.27;;;6.40;94.90;;;;;;4991773;28;20483;-75
2021/03/30 05:24:52;;;;;;;1.50;1.27;;;6.40;94.20;;;;;;4997004;28;20990;-73
2021/03/30 05:27:19;;;;;;;1.50;1.20;;;6.40;93.90;;;;;;4993798;28;20484;-73
2021/03/30 05:29:45;;;;;;;1.50;1.30;;;6.40;94.10;;;;;;5001698;28;20484;-73
2021/03/30 05:32:12;;;;;;;1.53;1.30;;;6.40;93.40;;;;;;4988899;28;20538;-73
2021/03/30 05:34:38;;;;;;;1.60;1.40;;;6.40;93.40;;;;;;4997102;28;20488;-74
2021/03/30 05:37:05;;;;;;;1.50;1.30;;;6.40;94.80;;;;;;4992518;28;20482;-74
2021/03/30 05:39:32;;;;;;;1.60;1.40;;;6.30;94.20;;;;;;4998769;28;20488;-73
2021/03/30 05:42:00;;;;;;;1.50;1.27;;;6.30;94.50;;;;;;4994055;28;20484;-72
2021/03/30 05:44:27;;;;;;;1.53;1.30;;;6.30;95.10;;;;;;4995646;28;20533;-72
2021/03/30 05:47:09;;;;;;;1.57;1.40;;;6.30;94.20;;;;;;4976561;28;20566;-72
2021/03/30 05:49:36;;;;;;;1.50;1.23;;;6.30;94.60;;;;;;4995762;28;20491;-72
2021/03/30 05:52:06;;;;;;;1.53;1.30;;;6.30;95.00;;;;;;4992829;28;20484;-72
2021/03/30 05:54:35;;;;;;;1.50;1.30;;;6.30;94.50;;;;;;4995037;28;20470;-72
2021/03/30 05:57:06;;;;;;;1.50;1.20;;;6.30;94.60;;;;;;4987812;28;20901;-72
2021/03/30 05:59:35;;;;;;;1.60;1.40;;;6.30;95.10;;;;;;4995405;28;20476;-72
2021/03/30 06:02:05;;;;;;;1.60;1.30;;;6.30;95.00;;;;;;4981902;28;20543;-71
2021/03/30 06:04:32;;;;;;;1.60;1.37;;;6.40;95.20;;;;;;4994943;28;20476;-71
2021/03/30 06:06:59;;;;;;;1.50;1.20;;;6.40;95.10;;;;;;4990556;28;20484;-71
2021/03/30 06:09:25;;;;;;;1.50;1.20;;;6.50;96.00;;;;;;4999755;28;20477;-72
2021/03/30 06:11:52;;;;;;;1.60;1.37;;;6.60;97.60;;;;;;4983949;28;20483;-72
2021/03/30 06:14:36;;;;;;;1.57;1.30;;;6.70;97.80;;;;;;4997072;28;20457;-73
2021/03/30 06:17:17;;;;;;;2.80;2.60;;;7.00;98.20;;;;;;4984145;28;20515;-72
2021/03/30 06:19:52;;;;;;;1.50;1.30;;;7.30;98.00;;;;;;4998081;28;20952;-72
2021/03/30 06:22:18;;;;;;;1.50;1.20;;;7.60;96.60;;;;;;4993121;28;20490;-72
2021/03/30 06:24:45;;;;;;;1.60;1.30;;;7.80;95.90;;;;;;4994482;28;20465;-72
2021/03/30 06:27:21;;;;;;;1.60;1.33;;;8.00;94.30;;;;;;4991008;28;20487;-72
2021/03/30 06:29:50;;;;;;;1.57;1.30;;;8.30;95.30;;;;;;4997188;28;20489;-73
2021/03/30 06:32:17;;;;;;;1.60;1.30;;;8.70;94.40;;;;;;4992323;28;20476;-76
2021/03/30 06:34:46;;;;;;;1.50;1.20;;;8.90;92.30;;;;;;4993832;28;20490;-72
2021/03/30 06:37:32;;;;;;;1.50;1.20;;;9.20;90.80;;;;;;4995167;28;20496;-72
2021/03/30 06:40:00;;;;;;;1.53;1.20;;;9.40;89.00;;;;;;4994745;28;20489;-72
2021/03/30 06:42:39;;;;;;;6.00;5.63;;;9.60;88.10;;;;;;4989270;28;20480;-71
2021/03/30 06:45:16;;;;;;;1.50;1.10;;;9.90;87.70;;;;;;4984498;28;20454;-72
2021/03/30 06:47:45;;;;;;;1.50;1.20;;;10.10;86.60;;;;;;4991694;28;20494;-72
2021/03/30 06:50:20;;;;;;;1.50;1.20;;;10.40;86.10;;;;;;4989062;28;20504;-72
2021/03/30 06:52:46;;;;;;;1.50;1.20;;;10.60;84.90;;;;;;4983188;28;20569;-74
2021/03/30 06:55:14;;;;;;;2.57;1.63;;;10.90;85.20;;;;;;4988948;28;20497;-74
2021/03/30 06:57:43;;;;;;;1.50;1.13;;;11.10;83.90;;;;;;4991501;28;20546;-72
2021/03/30 07:00:14;;;;;;;1.50;1.10;;;11.30;83.40;;;;;;4986727;28;20496;-72
2021/03/30 07:02:44;;;;;;;1.50;1.20;;;11.50;83.20;;;;;;4994378;28;20695;-73
2021/03/30 07:05:26;;;;;;;1.50;1.10;;;11.70;82.50;;;;;;4994895;28;20472;-72
2021/03/30 07:07:54;;;;;;;1.50;1.10;;;12.00;82.40;;;;;;4990252;28;20515;-73
2021/03/30 07:10:21;;;;;;;1.50;1.10;;;12.20;81.50;;;;;;4983754;28;20485;-74
2021/03/30 07:12:49;;;;;;;1.50;1.10;;;12.40;81.30;;;;;;4997170;28;20484;-74
2021/03/30 07:15:18;;;;;;;1.50;1.10;;;12.60;80.70;;;;;;4989642;28;20516;-74
2021/03/30 07:17:54;;;;;;;1.50;1.00;;;12.80;80.70;;;;;;4991854;28;20490;-74
2021/03/30 07:20:22;;;;;;;1.50;1.00;;;13.10;79.80;;;;;;4982955;28;20980;-74
2021/03/30 07:22:50;;;;;;;1.50;1.00;;;13.30;79.60;;;;;;4990307;28;20488;-74
2021/03/30 07:25:21;;;;;;;1.50;1.00;;;13.50;78.70;;;;;;4992001;28;20886;-74
2021/03/30 07:27:51;;;;;;;1.50;1.00;;;13.70;77.90;;;;;;4985882;28;20537;-74
2021/03/30 07:30:20;;;;;;;1.50;1.00;;;13.90;77.50;;;;;;4990602;28;20484;-74
2021/03/30 07:32:56;;;;;;;1.50;1.00;;;14.10;76.50;;;;;;4994221;28;20861;-74
2021/03/30 07:35:23;;;;;;;1.50;1.00;;;14.20;76.30;;;;;;4986990;28;20503;-74
2021/03/30 07:37:54;;;;;;;1.50;1.00;;;14.40;76.00;;;;;;4991847;28;20487;-75
2021/03/30 07:40:21;;;;;;;1.50;1.00;;;14.60;75.60;;;;;;4994450;28;20931;-75
2021/03/30 07:42:49;;;;;;;1.50;1.00;;;14.60;74.90;;;;;;4991469;28;21029;-75
2021/03/30 07:45:19;;;;;;;1.50;1.00;;;14.70;74.70;;;;;;4988376;28;20483;-75
2021/03/30 07:47:47;;;;;;;1.60;1.00;;;14.80;74.20;;;;;;4999313;28;20544;-74
2021/03/30 07:50:17;;;;;;;1.50;0.90;;;14.70;74.10;;;;;;4989622;28;20496;-75
2021/03/30 07:52:47;;;;;;;1.50;1.00;;;14.80;74.40;;;;;;4990068;28;20563;-75
2021/03/30 07:55:22;;;;;;;1.50;0.90;;;14.90;74.20;;;;;;4993037;28;20523;-74
2021/03/30 07:58:00;;;;;;;1.50;1.00;;;14.90;74.50;;;;;;4990968;28;20483;-76
2021/03/30 08:00:47;;;;;;;1.50;1.00;;;15.00;74.60;;;;;;4984729;28;20526;-76
2021/03/30 08:03:16;;;;;;;1.70;1.20;;;15.00;74.60;;;;;;4973251;28;20492;-74
2021/03/30 08:05:43;;;;;;;1.50;1.10;;;15.20;74.80;;;;;;4970231;28;20477;-74
2021/03/30 08:08:23;;;;;;;1.50;1.00;;;15.30;74.60;;;;;;4991411;28;20493;-74
2021/03/30 08:10:52;;;;;;;1.60;1.20;;;15.60;74.60;;;;;;4979340;28;20494;-77
2021/03/30 08:13:23;;;;;;;1.50;1.00;;;15.70;74.20;;;;;;4999593;28;20472;-77
2021/03/30 08:15:51;;;;;;;1.50;0.90;;;15.90;73.20;;;;;;4976517;28;20874;-76
2021/03/30 08:18:20;;;;;;;1.50;1.00;;;16.00;73.00;;;;;;5001237;28;20465;-76
2021/03/30 08:20:58;;;;;;;1.50;1.00;;;16.10;73.00;;;;;;4984895;28;20485;-77
2021/03/30 08:23:25;;;;;;;1.50;0.90;;;16.30;72.70;;;;;;5001499;28;20488;-76
2021/03/30 08:25:54;;;;;;;1.70;1.40;;;16.50;73.20;;;;;;4981529;28;20503;-77
2021/03/30 08:28:55;;;;;;;1.50;0.90;;;16.70;71.80;;;;;;5000929;28;20469;-76
2021/03/30 08:31:24;;;;;;;1.50;1.03;;;16.90;71.60;;;;;;4984689;28;20918;-74
2021/03/30 08:33:53;;;;;;;1.50;1.00;;;17.20;71.20;;;;;;4997695;28;20472;-80
2021/03/30 08:36:23;;;;;;;1.60;1.10;;;17.60;70.90;;;;;;4981909;28;21003;-77
2021/03/30 08:38:51;;;;;;;1.50;0.90;;;17.80;69.50;;;;;;4992653;28;20832;-76
2021/03/30 08:41:59;;;;;;;1.50;1.00;;;18.00;68.80;;;;;;4977090;28;20526;-76
2021/03/30 08:44:32;;;;;;;1.50;0.90;;;18.00;69.10;;;;;;4994945;28;20474;-76
2021/03/30 08:46:59;;;;;;;1.50;1.00;;;18.10;69.30;;;;;;4988088;28;20499;-75
2021/03/30 08:49:34;;;;;;;1.50;0.93;;;18.30;69.40;;;;;;4991668;28;20488;-76
2021/03/30 08:52:03;;;;;;;1.50;0.90;;;18.40;68.30;;;;;;4985837;28;20493;-75
2021/03/30 08:54:31;;;;;;;1.50;0.90;;;18.40;68.20;;;;;;4993985;28;20468;-75
2021/03/30 08:57:02;;;;;;;1.50;0.90;;;18.50;68.00;;;;;;4983327;28;20653;-77
2021/03/30 08:59:29;;;;;;;1.50;0.90;;;18.60;68.00;;;;;;4992466;28;20599;-76
2021/03/30 09:02:05;;;;;;;1.50;0.90;;;18.70;67.60;;;;;;4980371;28;20531;-76
2021/03/30 09:04:37;;;;;;;1.50;0.90;;;18.80;68.20;;;;;;4992442;28;20828;-76
2021/03/30 09:07:07;;;;;;;1.50;0.90;;;19.00;66.60;;;;;;4981708;28;20571;-77
2021/03/30 09:09:35;;;;;;;1.80;1.57;;;19.00;67.20;;;;;;4993061;28;20489;-77
2021/03/30 09:12:05;;;;;;;1.50;0.90;;;19.10;67.10;;;;;;4989575;28;20499;-77
2021/03/30 09:14:32;;;;;;;1.50;0.90;;;19.10;66.80;;;;;;4992652;28;20469;-77
2021/03/30 09:17:07;;;;;;;1.50;0.90;;;19.30;67.30;;;;;;4986874;28;20488;-77
2021/03/30 09:19:42;;;;;;;1.50;0.90;;;19.40;67.30;;;;;;4985795;28;20484;-74
2021/03/30 09:22:14;;;;;;;1.50;1.00;;;19.50;66.20;;;;;;4979330;28;20492;-75
2021/03/30 09:25:07;;;;;;;1.50;0.90;;;19.60;65.40;;;;;;4990809;28;20484;-75
2021/03/30 09:27:35;;;;;;;1.50;0.93;;;19.70;65.50;;;;;;4983385;28;20531;-77
2021/03/30 09:30:06;;;;;;;1.50;0.90;;;19.90;65.90;;;;;;4984616;28;21093;-77
2021/03/30 09:32:34;;;;;;;1.53;1.07;;;20.10;65.40;;;;;;4984867;28;20515;-77
2021/03/30 09:35:07;;;;;;;1.50;0.90;;;20.30;64.50;;;;;;4983884;28;20948;-76
2021/03/30 09:37:35;;;;;;;1.50;0.90;;;20.40;65.00;;;;;;4993913;28;20558;-76
2021/03/30 09:40:06;;;;;;;1.50;1.00;;;20.60;64.70;;;;;;4989973;28;20559;-77
2021/03/30 09:42:33;;;;;;;1.50;0.90;;;20.80;64.10;;;;;;4984887;28;20496;-77
2021/03/30 09:45:00;;;;;;;1.50;0.90;;;20.90;63.90;;;;;;4985268;28;20465;-77
2021/03/30 09:47:27;;;;;;;1.50;1.00;;;21.10;63.60;;;;;;4985686;28;20492;-74
2021/03/30 09:49:54;;;;;;;1.50;0.90;;;21.20;63.70;;;;;;4988205;28;20488;-77
2021/03/30 09:52:22;;;;;;;1.50;0.90;;;21.40;62.70;;;;;;4980746;28;20485;-78
2021/03/30 09:54:49;;;;;;;1.50;0.90;;;21.50;62.60;;;;;;4991931;28;20549;-77
2021/03/30 09:57:16;;;;;;;1.50;0.90;;;21.60;62.20;;;;;;4981176;28;20938;-76
2021/03/30 09:59:47;;;;;;;1.50;0.90;;;21.70;61.50;;;;;;4990781;28;20486;-76
2021/03/30 10:02:14;;;;;;;1.50;0.90;;;21.80;62.20;;;;;;4978137;28;20488;-76
2021/03/30 10:04:41;;;;;;;1.50;0.90;;;22.00;62.30;;;;;;4988305;28;20596;-77
2021/03/30 10:07:15;;;;;;;1.50;0.90;;;22.20;62.20;;;;;;4982191;28;20621;-78
2021/03/30 10:10:06;;;;;;;1.50;0.90;;;22.40;62.20;;;;;;4987162;28;20534;-78
2021/03/30 10:12:35;;;;;;;1.63;1.20;;;22.60;60.10;;;;;;4982413;28;21303;-78
2021/03/30 10:15:03;;;;;;;1.50;0.90;;;22.70;59.50;;;;;;4991696;28;20582;-77
2021/03/30 10:17:31;;;;;;;1.50;0.90;;;22.80;59.80;;;;;;4983955;28;20489;-78
2021/03/30 10:19:58;;;;;;;1.50;0.90;;;22.80;59.50;;;;;;4991922;28;20516;-77
2021/03/30 10:22:27;;;;;;;1.50;0.90;;;22.80;58.40;;;;;;4987341;28;20933;-79
2021/03/30 10:25:13;;;;;;;1.50;0.87;;;22.90;59.60;;;;;;4990059;28;20501;-78
2021/03/30 10:27:46;;;;;;;1.93;1.73;;;23.10;58.70;;;;;;4988421;28;20972;-79
2021/03/30 10:30:14;;;;;;;1.50;0.90;;;23.20;56.70;;;;;;4989498;28;20491;-77
2021/03/30 10:32:52;;;;;;;1.50;0.90;;;23.40;56.20;;;;;;4992441;28;20480;-75
2021/03/30 10:35:19;;;;;;;1.50;1.00;;;23.50;56.00;;;;;;4985891;28;20496;-81
2021/03/30 10:37:46;;;;;;;1.50;0.90;;;23.60;55.70;;;;;;4996401;28;20495;-81
2021/03/30 10:40:14;;;;;;;1.50;0.87;;;23.60;56.10;;;;;;4993401;28;20500;-81
2021/03/30 10:42:41;;;;;;;1.50;0.90;;;23.70;55.80;;;;;;4990921;28;20516;-80
2021/03/30 10:45:09;;;;;;;1.50;0.87;;;23.80;55.50;;;;;;4989964;28;20484;-80
2021/03/30 10:47:37;;;;;;;2.23;2.03;;;23.90;56.30;;;;;;4990649;28;20538;-79
2021/03/30 10:50:06;;;;;;;1.50;0.90;;;24.10;55.40;;;;;;4994500;28;20488;-80
2021/03/30 10:52:34;;;;;;;1.50;0.90;;;24.00;54.90;;;;;;4990466;28;20480;-81
2021/03/30 10:55:02;;;;;;;1.53;1.03;;;24.00;55.70;;;;;;4994759;28;20467;-80
2021/03/30 10:57:33;;;;;;;1.47;0.83;;;24.10;56.00;;;;;;4987607;28;20496;-81
2021/03/30 11:00:00;;;;;;;1.50;1.00;;;24.20;55.50;;;;;;5001152;28;20492;-79
2021/03/30 11:02:26;;;;;;;1.60;1.33;;;24.20;54.90;;;;;;4991225;28;20487;-79
2021/03/30 11:04:52;;;;;;;1.50;0.90;;;24.30;54.50;;;;;;4999254;28;20555;-82
2021/03/30 11:07:19;;;;;;;1.50;0.90;;;24.20;53.80;;;;;;4995578;28;20558;-80
2021/03/30 11:09:45;;;;;;;1.50;0.90;;;24.20;54.00;;;;;;5003416;28;20491;-79
2021/03/30 11:12:12;;;;;;;1.50;0.90;;;24.30;54.10;;;;;;4993882;28;20578;-81
2021/03/30 11:14:40;;;;;;;1.50;1.00;;;24.50;54.30;;;;;;5003919;28;20491;-80
2021/03/30 11:17:06;;;;;;;1.50;1.10;;;24.50;53.30;;;;;;4990418;28;20496;-81
2021/03/30 11:19:33;;;;;;;1.50;0.90;;;24.60;53.00;;;;;;4998932;28;20488;-79
2021/03/30 11:22:00;;;;;;;1.50;0.90;;;24.50;53.30;;;;;;4997390;28;20864;-80
2021/03/30 11:24:30;;;;;;;1.50;0.90;;;24.60;52.80;;;;;;5002447;28;20502;-79
2021/03/30 11:26:57;;;;;;;1.50;0.80;;;24.70;52.20;;;;;;4989466;28;20902;-82
2021/03/30 11:29:29;;;;;;;1.50;1.10;;;24.70;52.20;;;;;;4992323;28;20488;-79
2021/03/30 11:32:13;;;;;;;1.50;0.90;;;24.70;51.80;;;;;;4993822;28;20491;-80
2021/03/30 11:34:43;;;;;;;1.50;0.80;;;24.80;52.80;;;;;;4999445;28;20539;-78
2021/03/30 11:37:17;;;;;;;1.50;0.90;;;25.00;52.70;;;;;;4991462;28;20863;-79
2021/03/30 11:39:44;;;;;;;1.70;1.30;;;25.10;51.40;;;;;;4991942;28;20550;-81
2021/03/30 11:42:13;;;;;;;1.50;0.80;;;25.10;50.90;;;;;;4994546;28;20488;-80
2021/03/30 11:44:40;;;;;;;1.90;1.57;;;25.20;51.00;;;;;;4999221;28;20464;-80
2021/03/30 11:47:07;;;;;;;1.50;0.90;;;25.40;50.30;;;;;;5000890;28;20878;-80
2021/03/30 11:49:35;;;;;;;1.50;0.90;;;25.60;51.30;;;;;;4996000;28;20503;-80
2021/03/30 11:52:02;;;;;;;1.50;0.90;;;25.70;51.30;;;;;;4997630;28;20493;-79
2021/03/30 11:54:29;;;;;;;1.50;1.00;;;25.70;48.80;;;;;;4996675;28;20472;-80
2021/03/30 11:56:56;;;;;;;12.50;2.63;;;25.80;50.10;;;;;;4990691;28;20496;-80
2021/03/30 11:59:22;;;;;;;1.50;0.90;;;25.80;50.10;;;;;;5001105;28;20523;-79
2021/03/30 12:01:48;;;;;;;1.50;0.90;;;25.80;49.20;;;;;;4991299;28;20480;-80
2021/03/30 12:04:16;;;;;;;1.50;1.00;;;25.70;49.50;;;;;;4990427;28;20555;-79
2021/03/30 12:06:42;;;;;;;1.50;1.10;;;25.80;49.70;;;;;;4974499;28;20502;-80
2021/03/30 12:09:08;;;;;;;1.50;0.90;;;25.70;48.40;;;;;;4998553;28;20489;-80
2021/03/30 12:11:35;;;;;;;1.50;0.90;;;25.70;47.70;;;;;;4992886;28;20923;-79
2021/03/30 12:14:01;;;;;;;1.50;0.90;;;25.80;49.20;;;;;;4996538;28;20580;-79
2021/03/30 12:16:28;;;;;;;1.50;0.90;;;25.80;45.60;;;;;;4983697;28;20487;-80
2021/03/30 12:18:55;;;;;;;1.50;0.90;;;25.80;46.40;;;;;;5001952;28;20466;-80
2021/03/30 12:21:23;;;;;;;1.50;0.90;;;25.90;48.10;;;;;;4991879;28;20493;-81
2021/03/30 12:23:49;;;;;;;1.50;0.90;;;26.10;50.40;;;;;;5009475;28;20465;-81
2021/03/30 12:26:16;;;;;;;2.13;1.40;;;26.20;48.40;;;;;;4985720;28;20603;-79
2021/03/30 12:28:42;;;;;;;1.50;0.90;;;26.30;47.10;;;;;;4997643;28;20484;-80
2021/03/30 12:31:09;;;;;;;1.50;0.80;;;26.40;45.90;;;;;;4990427;28;20547;-81
2021/03/30 12:33:35;;;;;;;1.50;0.90;;;26.40;47.00;;;;;;4995716;28;20476;-79
2021/03/30 12:36:02;;;;;;;1.50;1.00;;;26.40;46.50;;;;;;4984996;28;20490;-79
2021/03/30 12:38:29;;;;;;;1.50;0.90;;;26.50;48.50;;;;;;4997190;28;20472;-80
2021/03/30 12:40:55;;;;;;;1.50;0.90;;;26.60;45.60;;;;;;4982455;28;20500;-80
2021/03/30 12:43:22;;;;;;;1.50;0.90;;;26.70;45.10;;;;;;5003804;28;20476;-81
2021/03/30 12:45:48;;;;;;;1.50;0.90;;;26.60;46.40;;;;;;4979691;28;20476;-79
2021/03/30 12:48:14;;;;;;;1.50;0.80;;;26.60;44.20;;;;;;5005949;28;21253;-79
2021/03/30 12:50:41;;;;;;;1.50;0.90;;;26.50;45.70;;;;;;4990776;28;20861;-79
2021/03/30 12:53:08;;;;;;;1.43;0.90;;;26.50;45.00;;;;;;4992290;28;21027;-81
2021/03/30 12:55:36;;;;;;;1.50;0.83;;;26.70;44.50;;;;;;4994915;28;21017;-79
2021/03/30 12:58:02;;;;;;;1.50;1.00;;;26.90;46.30;;;;;;4998252;28;20910;-78
2021/03/30 13:00:29;;;;;;;1.50;0.90;;;26.90;45.30;;;;;;4996487;28;20523;-81
2021/03/30 13:02:55;;;;;;;1.50;0.80;;;27.00;45.10;;;;;;5002210;28;21025;-80